sensor_id;sensor_type;location;lat;lon;timestamp;P1;durP1;ratioP1;P2;durP2;ratioP2
13698;SDS011;6921;53.642;9.956;2022-08-21T00:00:54;3.53;;;3.10;;
13698;SDS011;6921;53.642;9.956;2022-08-21T00:02:59;4.18;;;3.38;;
13698;SDS011;6921;53.642;9.956;2022-08-21T00:05:04;5.45;;;3.42;;
13698;SDS011;6921;53.642;9.956;2022-08-21T00:07:07;4.70;;;3.72;;
13698;SDS011;6921;53.642;9.956;2022-08-21T00:09:10;4.88;;;4.30;;
13698;SDS011;6921;53.642;9.956;2022-08-21T00:11:15;4.97;;;4.40;;
13698;SDS011;6921;53.642;9.956;2022-08-21T00:13:18;5.65;;;4.53;;
13698;SDS011;6921;53.642;9.956;2022-08-21T00:15:23;6.07;;;4.63;;
13698;SDS011;6921;53.642;9.956;2022-08-21T00:17:28;7.50;;;4.80;;
13698;SDS011;6921;53.642;9.956;2022-08-21T00:19:31;6.53;;;4.75;;
13698;SDS011;6921;53.642;9.956;2022-08-21T00:21:34;5.95;;;4.85;;
13698;SDS011;6921;53.642;9.956;2022-08-21T00:23:38;5.65;;;4.22;;
13698;SDS011;6921;53.642;9.956;2022-08-21T00:25:41;6.68;;;4.32;;
13698;SDS011;6921;53.642;9.956;2022-08-21T00:27:46;5.15;;;3.92;;
13698;SDS011;6921;53.642;9.956;2022-08-21T00:29:49;6.82;;;4.55;;
13698;SDS011;6921;53.642;9.956;2022-08-21T00:31:52;7.25;;;4.28;;
13698;SDS011;6921;53.642;9.956;2022-08-21T00:33:55;5.07;;;4.57;;
13698;SDS011;6921;53.642;9.956;2022-08-21T00:35:59;6.78;;;4.60;;
13698;SDS011;6921;53.642;9.956;2022-08-21T00:38:04;5.55;;;4.38;;
13698;SDS011;6921;53.642;9.956;2022-08-21T00:40:11;6.43;;;4.45;;
13698;SDS011;6921;53.642;9.956;2022-08-21T00:42:16;6.88;;;4.47;;
13698;SDS011;6921;53.642;9.956;2022-08-21T00:44:23;6.32;;;4.88;;
13698;SDS011;6921;53.642;9.956;2022-08-21T00:46:25;6.72;;;4.43;;
13698;SDS011;6921;53.642;9.956;2022-08-21T00:48:29;6.82;;;4.13;;
13698;SDS011;6921;53.642;9.956;2022-08-21T00:50:34;4.95;;;4.45;;
13698;SDS011;6921;53.642;9.956;2022-08-21T00:52:40;6.25;;;5.00;;
13698;SDS011;6921;53.642;9.956;2022-08-21T00:54:44;6.78;;;4.95;;
13698;SDS011;6921;53.642;9.956;2022-08-21T00:56:50;7.03;;;4.20;;
13698;SDS011;6921;53.642;9.956;2022-08-21T00:58:56;5.68;;;4.65;;
13698;SDS011;6921;53.642;9.956;2022-08-21T01:01:03;6.45;;;4.55;;
13698;SDS011;6921;53.642;9.956;2022-08-21T01:03:10;6.28;;;4.57;;
13698;SDS011;6921;53.642;9.956;2022-08-21T01:05:15;5.07;;;4.18;;
13698;SDS011;6921;53.642;9.956;2022-08-21T01:07:18;6.82;;;4.20;;
13698;SDS011;6921;53.642;9.956;2022-08-21T01:09:22;6.68;;;4.15;;
13698;SDS011;6921;53.642;9.956;2022-08-21T01:11:25;4.70;;;4.10;;
13698;SDS011;6921;53.642;9.956;2022-08-21T01:13:28;4.95;;;4.05;;
13698;SDS011;6921;53.642;9.956;2022-08-21T01:15:34;5.35;;;4.35;;
13698;SDS011;6921;53.642;9.956;2022-08-21T01:17:41;5.40;;;4.00;;
13698;SDS011;6921;53.642;9.956;2022-08-21T01:19:44;6.45;;;4.88;;
13698;SDS011;6921;53.642;9.956;2022-08-21T01:21:48;5.70;;;4.28;;
13698;SDS011;6921;53.642;9.956;2022-08-21T01:23:52;6.25;;;4.50;;
13698;SDS011;6921;53.642;9.956;2022-08-21T01:25:56;6.72;;;4.63;;
13698;SDS011;6921;53.642;9.956;2022-08-21T01:28:00;5.57;;;4.38;;
13698;SDS011;6921;53.642;9.956;2022-08-21T01:30:08;6.72;;;4.43;;
13698;SDS011;6921;53.642;9.956;2022-08-21T01:32:15;8.30;;;4.60;;
13698;SDS011;6921;53.642;9.956;2022-08-21T01:34:19;4.22;;;3.80;;
13698;SDS011;6921;53.642;9.956;2022-08-21T01:36:22;6.85;;;4.28;;
13698;SDS011;6921;53.642;9.956;2022-08-21T01:38:28;5.72;;;4.35;;
13698;SDS011;6921;53.642;9.956;2022-08-21T01:40:32;5.78;;;4.22;;
13698;SDS011;6921;53.642;9.956;2022-08-21T01:42:35;5.30;;;4.35;;
13698;SDS011;6921;53.642;9.956;2022-08-21T01:44:38;7.60;;;4.65;;
13698;SDS011;6921;53.642;9.956;2022-08-21T01:46:41;7.18;;;4.50;;
13698;SDS011;6921;53.642;9.956;2022-08-21T01:48:45;5.38;;;4.10;;
13698;SDS011;6921;53.642;9.956;2022-08-21T01:50:48;4.30;;;3.90;;
13698;SDS011;6921;53.642;9.956;2022-08-21T01:52:52;4.65;;;4.20;;
13698;SDS011;6921;53.642;9.956;2022-08-21T01:54:56;7.30;;;4.28;;
13698;SDS011;6921;53.642;9.956;2022-08-21T01:57:00;4.75;;;4.22;;
13698;SDS011;6921;53.642;9.956;2022-08-21T01:59:04;7.70;;;4.32;;
13698;SDS011;6921;53.642;9.956;2022-08-21T02:01:07;4.75;;;3.83;;
13698;SDS011;6921;53.642;9.956;2022-08-21T02:03:11;5.93;;;4.20;;
13698;SDS011;6921;53.642;9.956;2022-08-21T02:05:14;5.85;;;4.10;;
13698;SDS011;6921;53.642;9.956;2022-08-21T02:07:18;5.97;;;3.88;;
13698;SDS011;6921;53.642;9.956;2022-08-21T02:09:21;5.25;;;3.80;;
13698;SDS011;6921;53.642;9.956;2022-08-21T02:11:26;4.78;;;3.88;;
13698;SDS011;6921;53.642;9.956;2022-08-21T02:13:29;6.97;;;4.35;;
13698;SDS011;6921;53.642;9.956;2022-08-21T02:15:32;6.03;;;3.95;;
13698;SDS011;6921;53.642;9.956;2022-08-21T02:17:40;4.60;;;4.05;;
13698;SDS011;6921;53.642;9.956;2022-08-21T02:19:44;6.22;;;4.13;;
13698;SDS011;6921;53.642;9.956;2022-08-21T02:21:47;5.38;;;4.20;;
13698;SDS011;6921;53.642;9.956;2022-08-21T02:23:50;5.82;;;4.20;;
13698;SDS011;6921;53.642;9.956;2022-08-21T02:25:54;5.82;;;4.07;;
13698;SDS011;6921;53.642;9.956;2022-08-21T02:27:59;6.30;;;4.20;;
13698;SDS011;6921;53.642;9.956;2022-08-21T02:30:05;7.20;;;4.00;;
13698;SDS011;6921;53.642;9.956;2022-08-21T02:32:10;4.03;;;3.63;;
13698;SDS011;6921;53.642;9.956;2022-08-21T02:34:15;4.70;;;3.97;;
13698;SDS011;6921;53.642;9.956;2022-08-21T02:36:19;4.28;;;3.95;;
13698;SDS011;6921;53.642;9.956;2022-08-21T02:38:23;4.40;;;4.00;;
13698;SDS011;6921;53.642;9.956;2022-08-21T02:40:28;6.50;;;4.07;;
13698;SDS011;6921;53.642;9.956;2022-08-21T02:42:34;6.88;;;4.07;;
13698;SDS011;6921;53.642;9.956;2022-08-21T02:44:39;4.55;;;3.83;;
13698;SDS011;6921;53.642;9.956;2022-08-21T02:46:41;6.57;;;3.60;;
13698;SDS011;6921;53.642;9.956;2022-08-21T02:48:45;3.67;;;3.38;;
13698;SDS011;6921;53.642;9.956;2022-08-21T02:50:51;4.50;;;3.50;;
13698;SDS011;6921;53.642;9.956;2022-08-21T02:52:55;4.30;;;3.90;;
13698;SDS011;6921;53.642;9.956;2022-08-21T02:54:59;5.30;;;4.10;;
13698;SDS011;6921;53.642;9.956;2022-08-21T02:57:02;4.68;;;4.18;;
13698;SDS011;6921;53.642;9.956;2022-08-21T02:59:05;6.03;;;3.97;;
13698;SDS011;6921;53.642;9.956;2022-08-21T03:01:09;6.00;;;4.28;;
13698;SDS011;6921;53.642;9.956;2022-08-21T03:03:13;6.10;;;4.05;;
13698;SDS011;6921;53.642;9.956;2022-08-21T03:05:16;6.20;;;4.20;;
13698;SDS011;6921;53.642;9.956;2022-08-21T03:07:20;4.53;;;3.83;;
13698;SDS011;6921;53.642;9.956;2022-08-21T03:09:24;5.15;;;3.75;;
13698;SDS011;6921;53.642;9.956;2022-08-21T03:11:27;4.50;;;4.10;;
13698;SDS011;6921;53.642;9.956;2022-08-21T03:13:30;4.07;;;3.70;;
13698;SDS011;6921;53.642;9.956;2022-08-21T03:15:34;3.92;;;3.47;;
13698;SDS011;6921;53.642;9.956;2022-08-21T03:17:39;4.82;;;3.85;;
13698;SDS011;6921;53.642;9.956;2022-08-21T03:19:42;4.25;;;3.85;;
13698;SDS011;6921;53.642;9.956;2022-08-21T03:21:45;4.00;;;3.45;;
13698;SDS011;6921;53.642;9.956;2022-08-21T03:23:48;5.75;;;4.10;;
13698;SDS011;6921;53.642;9.956;2022-08-21T03:25:52;6.72;;;3.88;;
13698;SDS011;6921;53.642;9.956;2022-08-21T03:27:55;4.15;;;3.83;;
13698;SDS011;6921;53.642;9.956;2022-08-21T03:29:59;5.22;;;4.28;;
13698;SDS011;6921;53.642;9.956;2022-08-21T03:32:02;5.25;;;4.20;;
13698;SDS011;6921;53.642;9.956;2022-08-21T03:34:06;5.85;;;4.10;;
13698;SDS011;6921;53.642;9.956;2022-08-21T03:36:09;4.63;;;4.00;;
13698;SDS011;6921;53.642;9.956;2022-08-21T03:38:13;6.07;;;4.28;;
13698;SDS011;6921;53.642;9.956;2022-08-21T03:40:17;5.55;;;4.30;;
13698;SDS011;6921;53.642;9.956;2022-08-21T03:42:21;4.93;;;4.05;;
13698;SDS011;6921;53.642;9.956;2022-08-21T03:44:25;6.03;;;4.43;;
13698;SDS011;6921;53.642;9.956;2022-08-21T03:46:31;4.75;;;4.30;;
13698;SDS011;6921;53.642;9.956;2022-08-21T03:48:35;4.90;;;4.25;;
13698;SDS011;6921;53.642;9.956;2022-08-21T03:50:41;5.82;;;4.13;;
13698;SDS011;6921;53.642;9.956;2022-08-21T03:52:47;5.63;;;3.80;;
13698;SDS011;6921;53.642;9.956;2022-08-21T03:54:51;6.40;;;4.15;;
13698;SDS011;6921;53.642;9.956;2022-08-21T03:56:54;5.32;;;4.07;;
13698;SDS011;6921;53.642;9.956;2022-08-21T03:58:57;5.40;;;4.00;;
13698;SDS011;6921;53.642;9.956;2022-08-21T04:01:01;6.43;;;4.68;;
13698;SDS011;6921;53.642;9.956;2022-08-21T04:03:07;4.68;;;4.28;;
13698;SDS011;6921;53.642;9.956;2022-08-21T04:05:10;4.60;;;4.05;;
13698;SDS011;6921;53.642;9.956;2022-08-21T04:07:15;6.03;;;4.47;;
13698;SDS011;6921;53.642;9.956;2022-08-21T04:09:20;6.50;;;4.32;;
13698;SDS011;6921;53.642;9.956;2022-08-21T04:11:24;5.22;;;4.30;;
13698;SDS011;6921;53.642;9.956;2022-08-21T04:13:27;6.18;;;4.57;;
13698;SDS011;6921;53.642;9.956;2022-08-21T04:15:31;4.90;;;4.22;;
13698;SDS011;6921;53.642;9.956;2022-08-21T04:17:34;5.10;;;4.60;;
13698;SDS011;6921;53.642;9.956;2022-08-21T04:19:38;4.60;;;4.20;;
13698;SDS011;6921;53.642;9.956;2022-08-21T04:21:41;4.90;;;4.18;;
13698;SDS011;6921;53.642;9.956;2022-08-21T04:23:46;5.80;;;4.20;;
13698;SDS011;6921;53.642;9.956;2022-08-21T04:25:49;4.63;;;4.20;;
13698;SDS011;6921;53.642;9.956;2022-08-21T04:27:52;4.30;;;3.90;;
13698;SDS011;6921;53.642;9.956;2022-08-21T04:29:56;4.50;;;4.10;;
13698;SDS011;6921;53.642;9.956;2022-08-21T04:31:59;4.30;;;3.88;;
13698;SDS011;6921;53.642;9.956;2022-08-21T04:34:02;6.00;;;4.72;;
13698;SDS011;6921;53.642;9.956;2022-08-21T04:36:06;6.20;;;4.22;;
13698;SDS011;6921;53.642;9.956;2022-08-21T04:38:09;5.25;;;4.32;;
13698;SDS011;6921;53.642;9.956;2022-08-21T04:40:15;5.25;;;4.47;;
13698;SDS011;6921;53.642;9.956;2022-08-21T04:42:19;5.78;;;4.03;;
13698;SDS011;6921;53.642;9.956;2022-08-21T04:44:22;5.78;;;4.20;;
13698;SDS011;6921;53.642;9.956;2022-08-21T04:46:25;5.60;;;4.03;;
13698;SDS011;6921;53.642;9.956;2022-08-21T04:48:28;4.85;;;4.35;;
13698;SDS011;6921;53.642;9.956;2022-08-21T04:50:35;5.55;;;4.40;;
13698;SDS011;6921;53.642;9.956;2022-08-21T04:52:40;5.85;;;4.75;;
13698;SDS011;6921;53.642;9.956;2022-08-21T04:54:43;5.43;;;4.53;;
13698;SDS011;6921;53.642;9.956;2022-08-21T04:56:49;7.70;;;4.07;;
13698;SDS011;6921;53.642;9.956;2022-08-21T04:58:55;5.18;;;4.68;;
13698;SDS011;6921;53.642;9.956;2022-08-21T05:01:00;4.95;;;4.45;;
13698;SDS011;6921;53.642;9.956;2022-08-21T05:03:05;5.30;;;4.55;;
13698;SDS011;6921;53.642;9.956;2022-08-21T05:05:09;5.43;;;4.25;;
13698;SDS011;6921;53.642;9.956;2022-08-21T05:07:14;5.90;;;4.35;;
13698;SDS011;6921;53.642;9.956;2022-08-21T05:09:41;5.35;;;4.28;;
13698;SDS011;6921;53.642;9.956;2022-08-21T05:11:44;5.32;;;4.57;;
13698;SDS011;6921;53.642;9.956;2022-08-21T05:13:49;6.50;;;5.10;;
13698;SDS011;6921;53.642;9.956;2022-08-21T05:15:56;5.38;;;4.60;;
13698;SDS011;6921;53.642;9.956;2022-08-21T05:17:59;5.80;;;4.43;;
13698;SDS011;6921;53.642;9.956;2022-08-21T05:20:03;4.95;;;4.45;;
13698;SDS011;6921;53.642;9.956;2022-08-21T05:22:07;6.18;;;4.43;;
13698;SDS011;6921;53.642;9.956;2022-08-21T05:24:10;5.78;;;4.55;;
13698;SDS011;6921;53.642;9.956;2022-08-21T05:26:13;7.05;;;4.88;;
13698;SDS011;6921;53.642;9.956;2022-08-21T05:28:18;6.32;;;5.03;;
13698;SDS011;6921;53.642;9.956;2022-08-21T05:30:23;4.68;;;4.28;;
13698;SDS011;6921;53.642;9.956;2022-08-21T05:32:26;7.25;;;4.75;;
13698;SDS011;6921;53.642;9.956;2022-08-21T05:34:29;5.30;;;4.80;;
13698;SDS011;6921;53.642;9.956;2022-08-21T05:36:33;5.78;;;4.43;;
13698;SDS011;6921;53.642;9.956;2022-08-21T05:38:36;5.40;;;4.90;;
13698;SDS011;6921;53.642;9.956;2022-08-21T05:40:39;5.63;;;4.85;;
13698;SDS011;6921;53.642;9.956;2022-08-21T05:42:43;6.00;;;4.80;;
13698;SDS011;6921;53.642;9.956;2022-08-21T05:44:54;5.15;;;4.65;;
13698;SDS011;6921;53.642;9.956;2022-08-21T05:47:02;6.45;;;4.78;;
13698;SDS011;6921;53.642;9.956;2022-08-21T05:49:06;6.25;;;4.90;;
13698;SDS011;6921;53.642;9.956;2022-08-21T05:51:10;6.85;;;4.60;;
13698;SDS011;6921;53.642;9.956;2022-08-21T05:53:16;5.95;;;4.72;;
13698;SDS011;6921;53.642;9.956;2022-08-21T05:55:21;6.57;;;4.88;;
13698;SDS011;6921;53.642;9.956;2022-08-21T05:57:24;6.15;;;5.03;;
13698;SDS011;6921;53.642;9.956;2022-08-21T05:59:27;6.05;;;4.95;;
13698;SDS011;6921;53.642;9.956;2022-08-21T06:01:30;5.18;;;4.57;;
13698;SDS011;6921;53.642;9.956;2022-08-21T06:03:35;7.18;;;5.00;;
13698;SDS011;6921;53.642;9.956;2022-08-21T06:05:40;6.72;;;5.38;;
13698;SDS011;6921;53.642;9.956;2022-08-21T06:07:43;7.10;;;5.47;;
13698;SDS011;6921;53.642;9.956;2022-08-21T06:09:46;8.32;;;5.05;;
13698;SDS011;6921;53.642;9.956;2022-08-21T06:11:49;5.28;;;4.78;;
13698;SDS011;6921;53.642;9.956;2022-08-21T06:13:53;6.80;;;5.32;;
13698;SDS011;6921;53.642;9.956;2022-08-21T06:16:03;6.55;;;5.85;;
13698;SDS011;6921;53.642;9.956;2022-08-21T06:18:08;7.78;;;5.38;;
13698;SDS011;6921;53.642;9.956;2022-08-21T06:20:13;5.95;;;5.05;;
13698;SDS011;6921;53.642;9.956;2022-08-21T06:22:16;7.95;;;5.38;;
13698;SDS011;6921;53.642;9.956;2022-08-21T06:24:19;8.63;;;5.57;;
13698;SDS011;6921;53.642;9.956;2022-08-21T06:26:22;5.70;;;5.05;;
13698;SDS011;6921;53.642;9.956;2022-08-21T06:28:26;8.63;;;5.05;;
13698;SDS011;6921;53.642;9.956;2022-08-21T06:30:29;5.88;;;5.05;;
13698;SDS011;6921;53.642;9.956;2022-08-21T06:32:32;8.52;;;5.40;;
13698;SDS011;6921;53.642;9.956;2022-08-21T06:34:36;7.07;;;5.00;;
13698;SDS011;6921;53.642;9.956;2022-08-21T06:36:41;5.75;;;4.38;;
13698;SDS011;6921;53.642;9.956;2022-08-21T06:38:44;7.80;;;4.90;;
13698;SDS011;6921;53.642;9.956;2022-08-21T06:40:49;4.97;;;4.30;;
13698;SDS011;6921;53.642;9.956;2022-08-21T06:42:52;8.20;;;4.50;;
13698;SDS011;6921;53.642;9.956;2022-08-21T06:44:56;7.60;;;4.32;;
13698;SDS011;6921;53.642;9.956;2022-08-21T06:46:59;6.38;;;3.92;;
13698;SDS011;6921;53.642;9.956;2022-08-21T06:49:02;5.82;;;3.80;;
13698;SDS011;6921;53.642;9.956;2022-08-21T06:51:06;7.07;;;4.45;;
13698;SDS011;6921;53.642;9.956;2022-08-21T06:53:11;7.25;;;3.92;;
13698;SDS011;6921;53.642;9.956;2022-08-21T06:55:18;6.47;;;3.65;;
13698;SDS011;6921;53.642;9.956;2022-08-21T06:57:22;7.03;;;4.07;;
13698;SDS011;6921;53.642;9.956;2022-08-21T06:59:26;5.50;;;3.72;;
13698;SDS011;6921;53.642;9.956;2022-08-21T07:01:29;6.32;;;3.88;;
13698;SDS011;6921;53.642;9.956;2022-08-21T07:03:34;8.63;;;4.35;;
13698;SDS011;6921;53.642;9.956;2022-08-21T07:05:38;5.82;;;3.70;;
13698;SDS011;6921;53.642;9.956;2022-08-21T07:07:42;6.32;;;4.00;;
13698;SDS011;6921;53.642;9.956;2022-08-21T07:09:46;7.07;;;3.95;;
13698;SDS011;6921;53.642;9.956;2022-08-21T07:11:50;5.32;;;3.67;;
13698;SDS011;6921;53.642;9.956;2022-08-21T07:13:55;5.22;;;3.85;;
13698;SDS011;6921;53.642;9.956;2022-08-21T07:15:59;4.35;;;3.45;;
13698;SDS011;6921;53.642;9.956;2022-08-21T07:18:04;5.10;;;2.90;;
13698;SDS011;6921;53.642;9.956;2022-08-21T07:20:08;3.53;;;3.00;;
13698;SDS011;6921;53.642;9.956;2022-08-21T07:22:14;6.93;;;2.90;;
13698;SDS011;6921;53.642;9.956;2022-08-21T07:24:20;4.35;;;2.67;;
13698;SDS011;6921;53.642;9.956;2022-08-21T07:26:24;3.40;;;1.98;;
13698;SDS011;6921;53.642;9.956;2022-08-21T07:28:28;4.80;;;2.00;;
13698;SDS011;6921;53.642;9.956;2022-08-21T07:30:31;3.15;;;2.20;;
13698;SDS011;6921;53.642;9.956;2022-08-21T07:32:34;3.00;;;2.00;;
13698;SDS011;6921;53.642;9.956;2022-08-21T07:34:38;3.35;;;1.80;;
13698;SDS011;6921;53.642;9.956;2022-08-21T07:36:41;3.63;;;1.98;;
13698;SDS011;6921;53.642;9.956;2022-08-21T07:38:44;4.50;;;1.70;;
13698;SDS011;6921;53.642;9.956;2022-08-21T07:40:48;2.40;;;1.60;;
13698;SDS011;6921;53.642;9.956;2022-08-21T07:42:54;5.72;;;1.73;;
13698;SDS011;6921;53.642;9.956;2022-08-21T07:44:57;1.52;;;1.25;;
13698;SDS011;6921;53.642;9.956;2022-08-21T07:47:00;2.85;;;1.67;;
13698;SDS011;6921;53.642;9.956;2022-08-21T07:49:04;1.50;;;1.25;;
13698;SDS011;6921;53.642;9.956;2022-08-21T07:51:08;3.90;;;1.50;;
13698;SDS011;6921;53.642;9.956;2022-08-21T07:53:12;1.85;;;1.27;;
13698;SDS011;6921;53.642;9.956;2022-08-21T07:55:16;3.83;;;1.60;;
13698;SDS011;6921;53.642;9.956;2022-08-21T07:57:23;4.38;;;1.30;;
13698;SDS011;6921;53.642;9.956;2022-08-21T07:59:28;6.25;;;1.50;;
13698;SDS011;6921;53.642;9.956;2022-08-21T08:01:31;6.40;;;1.75;;
13698;SDS011;6921;53.642;9.956;2022-08-21T08:03:35;2.80;;;1.42;;
13698;SDS011;6921;53.642;9.956;2022-08-21T08:05:38;2.95;;;1.67;;
13698;SDS011;6921;53.642;9.956;2022-08-21T08:07:41;2.80;;;1.48;;
13698;SDS011;6921;53.642;9.956;2022-08-21T08:09:45;2.30;;;1.58;;
13698;SDS011;6921;53.642;9.956;2022-08-21T08:11:48;3.10;;;1.48;;
13698;SDS011;6921;53.642;9.956;2022-08-21T08:13:52;5.47;;;1.50;;
13698;SDS011;6921;53.642;9.956;2022-08-21T08:15:59;2.92;;;1.45;;
13698;SDS011;6921;53.642;9.956;2022-08-21T08:18:02;4.63;;;1.35;;
13698;SDS011;6921;53.642;9.956;2022-08-21T08:20:06;1.95;;;1.40;;
13698;SDS011;6921;53.642;9.956;2022-08-21T08:22:13;2.88;;;1.55;;
13698;SDS011;6921;53.642;9.956;2022-08-21T08:24:16;3.53;;;1.60;;
13698;SDS011;6921;53.642;9.956;2022-08-21T08:26:20;4.07;;;1.50;;
13698;SDS011;6921;53.642;9.956;2022-08-21T08:28:24;3.25;;;1.70;;
13698;SDS011;6921;53.642;9.956;2022-08-21T08:30:28;2.65;;;1.38;;
13698;SDS011;6921;53.642;9.956;2022-08-21T08:32:34;3.83;;;1.42;;
13698;SDS011;6921;53.642;9.956;2022-08-21T08:34:38;2.05;;;1.40;;
13698;SDS011;6921;53.642;9.956;2022-08-21T08:36:41;3.75;;;1.83;;
13698;SDS011;6921;53.642;9.956;2022-08-21T08:38:45;3.40;;;1.50;;
13698;SDS011;6921;53.642;9.956;2022-08-21T08:40:50;4.10;;;1.58;;
13698;SDS011;6921;53.642;9.956;2022-08-21T08:43:01;3.78;;;1.75;;
13698;SDS011;6921;53.642;9.956;2022-08-21T08:45:05;5.05;;;1.80;;
13698;SDS011;6921;53.642;9.956;2022-08-21T08:47:11;3.85;;;1.52;;
13698;SDS011;6921;53.642;9.956;2022-08-21T08:49:19;4.25;;;1.80;;
13698;SDS011;6921;53.642;9.956;2022-08-21T08:51:26;2.40;;;1.80;;
13698;SDS011;6921;53.642;9.956;2022-08-21T08:53:36;6.00;;;1.77;;
13698;SDS011;6921;53.642;9.956;2022-08-21T08:55:47;4.47;;;2.00;;
13698;SDS011;6921;53.642;9.956;2022-08-21T08:57:51;3.20;;;1.90;;
13698;SDS011;6921;53.642;9.956;2022-08-21T08:59:56;5.72;;;2.00;;
13698;SDS011;6921;53.642;9.956;2022-08-21T09:02:03;3.97;;;1.88;;
13698;SDS011;6921;53.642;9.956;2022-08-21T09:04:06;5.05;;;1.90;;
13698;SDS011;6921;53.642;9.956;2022-08-21T09:06:13;4.78;;;1.90;;
13698;SDS011;6921;53.642;9.956;2022-08-21T09:08:37;4.07;;;1.85;;
13698;SDS011;6921;53.642;9.956;2022-08-21T09:10:53;5.65;;;2.08;;
13698;SDS011;6921;53.642;9.956;2022-08-21T09:13:10;5.60;;;1.92;;
13698;SDS011;6921;53.642;9.956;2022-08-21T09:15:23;3.47;;;2.20;;
13698;SDS011;6921;53.642;9.956;2022-08-21T09:17:39;3.33;;;1.98;;
13698;SDS011;6921;53.642;9.956;2022-08-21T09:19:54;5.07;;;2.15;;
13698;SDS011;6921;53.642;9.956;2022-08-21T09:22:08;4.88;;;1.77;;
13698;SDS011;6921;53.642;9.956;2022-08-21T09:24:23;4.10;;;1.70;;
13698;SDS011;6921;53.642;9.956;2022-08-21T09:26:34;4.00;;;1.70;;
13698;SDS011;6921;53.642;9.956;2022-08-21T09:28:50;4.80;;;2.00;;
13698;SDS011;6921;53.642;9.956;2022-08-21T09:30:55;2.58;;;1.83;;
13698;SDS011;6921;53.642;9.956;2022-08-21T09:33:03;4.03;;;1.60;;
13698;SDS011;6921;53.642;9.956;2022-08-21T09:35:08;6.35;;;1.90;;
13698;SDS011;6921;53.642;9.956;2022-08-21T09:37:18;3.20;;;1.98;;
13698;SDS011;6921;53.642;9.956;2022-08-21T09:39:23;5.47;;;1.98;;
13698;SDS011;6921;53.642;9.956;2022-08-21T09:41:27;4.20;;;1.83;;
13698;SDS011;6921;53.642;9.956;2022-08-21T09:43:32;5.95;;;2.10;;
13698;SDS011;6921;53.642;9.956;2022-08-21T09:45:36;2.95;;;1.80;;
13698;SDS011;6921;53.642;9.956;2022-08-21T09:47:40;6.25;;;2.13;;
13698;SDS011;6921;53.642;9.956;2022-08-21T09:49:44;2.83;;;1.90;;
13698;SDS011;6921;53.642;9.956;2022-08-21T09:51:49;3.42;;;2.13;;
13698;SDS011;6921;53.642;9.956;2022-08-21T09:53:56;4.10;;;1.98;;
13698;SDS011;6921;53.642;9.956;2022-08-21T09:56:17;2.63;;;1.92;;
13698;SDS011;6921;53.642;9.956;2022-08-21T09:58:41;4.97;;;2.33;;
13698;SDS011;6921;53.642;9.956;2022-08-21T10:00:47;7.30;;;2.15;;
13698;SDS011;6921;53.642;9.956;2022-08-21T10:03:12;3.03;;;1.67;;
13698;SDS011;6921;53.642;9.956;2022-08-21T10:05:20;5.07;;;1.98;;
13698;SDS011;6921;53.642;9.956;2022-08-21T10:07:26;3.10;;;1.90;;
13698;SDS011;6921;53.642;9.956;2022-08-21T10:09:31;3.75;;;1.88;;
13698;SDS011;6921;53.642;9.956;2022-08-21T10:11:34;3.50;;;2.28;;
13698;SDS011;6921;53.642;9.956;2022-08-21T10:13:41;5.13;;;2.65;;
13698;SDS011;6921;53.642;9.956;2022-08-21T10:15:54;4.90;;;2.30;;
13698;SDS011;6921;53.642;9.956;2022-08-21T10:18:09;7.53;;;2.10;;
13698;SDS011;6921;53.642;9.956;2022-08-21T10:20:21;2.47;;;2.17;;
13698;SDS011;6921;53.642;9.956;2022-08-21T10:22:31;2.63;;;1.83;;
13698;SDS011;6921;53.642;9.956;2022-08-21T10:24:42;4.55;;;2.05;;
13698;SDS011;6921;53.642;9.956;2022-08-21T10:26:52;2.80;;;1.95;;
13698;SDS011;6921;53.642;9.956;2022-08-21T10:29:06;3.58;;;1.92;;
13698;SDS011;6921;53.642;9.956;2022-08-21T10:31:18;3.03;;;1.85;;
13698;SDS011;6921;53.642;9.956;2022-08-21T10:33:28;3.22;;;2.03;;
13698;SDS011;6921;53.642;9.956;2022-08-21T10:35:40;3.45;;;2.00;;
13698;SDS011;6921;53.642;9.956;2022-08-21T10:37:52;3.80;;;1.92;;
13698;SDS011;6921;53.642;9.956;2022-08-21T10:40:11;2.78;;;2.00;;
13698;SDS011;6921;53.642;9.956;2022-08-21T10:42:25;3.88;;;1.80;;
13698;SDS011;6921;53.642;9.956;2022-08-21T10:44:37;5.13;;;2.25;;
13698;SDS011;6921;53.642;9.956;2022-08-21T10:46:50;3.80;;;1.95;;
13698;SDS011;6921;53.642;9.956;2022-08-21T10:48:57;4.30;;;2.10;;
13698;SDS011;6921;53.642;9.956;2022-08-21T10:51:06;6.10;;;2.03;;
13698;SDS011;6921;53.642;9.956;2022-08-21T10:53:20;5.88;;;1.80;;
13698;SDS011;6921;53.642;9.956;2022-08-21T10:55:35;2.90;;;1.88;;
13698;SDS011;6921;53.642;9.956;2022-08-21T10:57:43;5.30;;;1.95;;
13698;SDS011;6921;53.642;9.956;2022-08-21T10:59:53;2.85;;;1.70;;
13698;SDS011;6921;53.642;9.956;2022-08-21T11:02:01;5.07;;;1.60;;
13698;SDS011;6921;53.642;9.956;2022-08-21T11:04:13;2.70;;;1.52;;
13698;SDS011;6921;53.642;9.956;2022-08-21T11:06:22;2.90;;;1.50;;
13698;SDS011;6921;53.642;9.956;2022-08-21T11:08:28;3.22;;;1.60;;
13698;SDS011;6921;53.642;9.956;2022-08-21T11:10:39;4.28;;;2.03;;
13698;SDS011;6921;53.642;9.956;2022-08-21T11:12:58;4.30;;;1.90;;
13698;SDS011;6921;53.642;9.956;2022-08-21T11:15:05;2.92;;;1.50;;
13698;SDS011;6921;53.642;9.956;2022-08-21T11:17:22;2.92;;;1.42;;
13698;SDS011;6921;53.642;9.956;2022-08-21T11:19:32;3.97;;;1.55;;
13698;SDS011;6921;53.642;9.956;2022-08-21T11:21:39;1.85;;;1.60;;
13698;SDS011;6921;53.642;9.956;2022-08-21T11:23:47;4.80;;;1.88;;
13698;SDS011;6921;53.642;9.956;2022-08-21T11:26:07;4.28;;;1.80;;
13698;SDS011;6921;53.642;9.956;2022-08-21T11:28:15;2.95;;;1.50;;
13698;SDS011;6921;53.642;9.956;2022-08-21T11:30:22;3.15;;;1.60;;
13698;SDS011;6921;53.642;9.956;2022-08-21T11:35:09;2.85;;;1.80;;
13698;SDS011;6921;53.642;9.956;2022-08-21T11:37:21;4.95;;;1.63;;
13698;SDS011;6921;53.642;9.956;2022-08-21T11:39:44;3.80;;;1.60;;
13698;SDS011;6921;53.642;9.956;2022-08-21T11:41:57;2.30;;;1.50;;
13698;SDS011;6921;53.642;9.956;2022-08-21T11:44:10;2.70;;;1.45;;
13698;SDS011;6921;53.642;9.956;2022-08-21T11:46:20;2.63;;;1.60;;
13698;SDS011;6921;53.642;9.956;2022-08-21T11:48:34;2.67;;;1.33;;
13698;SDS011;6921;53.642;9.956;2022-08-21T11:50:42;2.58;;;1.65;;
13698;SDS011;6921;53.642;9.956;2022-08-21T11:52:48;2.15;;;1.40;;
13698;SDS011;6921;53.642;9.956;2022-08-21T11:54:57;1.45;;;1.30;;
13698;SDS011;6921;53.642;9.956;2022-08-21T11:57:07;3.08;;;1.60;;
13698;SDS011;6921;53.642;9.956;2022-08-21T11:59:16;2.25;;;1.15;;
13698;SDS011;6921;53.642;9.956;2022-08-21T12:01:26;2.05;;;1.88;;
13698;SDS011;6921;53.642;9.956;2022-08-21T12:03:33;2.72;;;1.58;;
13698;SDS011;6921;53.642;9.956;2022-08-21T12:05:39;1.60;;;1.30;;
13698;SDS011;6921;53.642;9.956;2022-08-21T12:07:44;1.83;;;1.48;;
13698;SDS011;6921;53.642;9.956;2022-08-21T12:09:52;1.77;;;1.30;;
13698;SDS011;6921;53.642;9.956;2022-08-21T12:12:00;1.23;;;1.13;;
13698;SDS011;6921;53.642;9.956;2022-08-21T12:14:13;2.80;;;1.40;;
13698;SDS011;6921;53.642;9.956;2022-08-21T12:16:28;2.00;;;1.60;;
13698;SDS011;6921;53.642;9.956;2022-08-21T12:18:33;1.48;;;1.38;;
13698;SDS011;6921;53.642;9.956;2022-08-21T12:20:40;3.75;;;1.20;;
13698;SDS011;6921;53.642;9.956;2022-08-21T12:22:51;2.70;;;1.70;;
13698;SDS011;6921;53.642;9.956;2022-08-21T12:25:03;2.35;;;1.30;;
13698;SDS011;6921;53.642;9.956;2022-08-21T12:27:13;1.98;;;1.30;;
13698;SDS011;6921;53.642;9.956;2022-08-21T12:29:32;3.03;;;1.52;;
13698;SDS011;6921;53.642;9.956;2022-08-21T12:31:53;1.27;;;1.17;;
13698;SDS011;6921;53.642;9.956;2022-08-21T12:33:59;1.83;;;1.20;;
13698;SDS011;6921;53.642;9.956;2022-08-21T12:36:05;2.72;;;1.42;;
13698;SDS011;6921;53.642;9.956;2022-08-21T12:38:14;2.47;;;1.45;;
13698;SDS011;6921;53.642;9.956;2022-08-21T12:40:20;1.55;;;1.35;;
13698;SDS011;6921;53.642;9.956;2022-08-21T12:42:29;1.92;;;1.25;;
13698;SDS011;6921;53.642;9.956;2022-08-21T12:44:42;2.47;;;1.20;;
13698;SDS011;6921;53.642;9.956;2022-08-21T12:46:48;4.32;;;1.52;;
13698;SDS011;6921;53.642;9.956;2022-08-21T12:48:56;3.03;;;1.30;;
13698;SDS011;6921;53.642;9.956;2022-08-21T12:51:07;1.88;;;1.10;;
13698;SDS011;6921;53.642;9.956;2022-08-21T12:53:15;1.50;;;1.10;;